Terminal Aerodrome Forecast
Issued by NWS North Platte, NE

Home | Current Version | Previous Version | Text Only | Print | Product List | Glossary Off
Versions: 1 2 3 4 5 6 7 8 9 10 11 12 13 14 15 16 17 18

000
FTUS43 KLBF 171120
TAFVTN
TAF
KVTN 171120Z 1712/1812 26005KT P6SM SKC
     FM171800 20008KT P6SM FEW250
     FM172300 17009KT P6SM BKN150
     FM180000 17009KT P6SM VCTS BKN150CB PROB30 1801/1806 5SM -TSRA
      BKN100CB
     FM180700 26006KT P6SM SCT200=

USA.gov is the U.S. government's official web portal to all federal, state and local government web resources and services.